Time;durP1;ratioP1;P1;durP2;ratioP2;P2;SDS_P1;SDS_P2;PMS_P1;PMS_P2;Temp;Humidity;BMP_temperature;BMP_pressure;BME280_temperature;BME280_humidity;BME280_pressure;Samples;Min_cycle;Max_cycle;Signal;HPM_P1;HPM_P2
2022/03/18 00:00:16;;;;;;;1.00;1.00;;;;;;;-7.90;53.67;101835.13;4954516;29;20055;-86
2022/03/18 00:02:45;;;;;;;1.10;1.10;;;;;;;-7.95;53.77;101834.44;4954639;29;20089;-84
2022/03/18 00:05:12;;;;;;;0.90;0.90;;;;;;;-8.07;54.06;101827.03;4954816;28;20514;-83
2022/03/18 00:07:44;;;;;;;0.80;0.80;;;;;;;-8.13;54.06;101822.00;4937665;29;20051;-84
2022/03/18 00:10:17;;;;;;;0.90;0.90;;;;;;;-8.09;53.91;101823.59;4953737;28;20451;-85
2022/03/18 00:12:45;;;;;;;0.90;0.90;;;;;;;-8.14;53.71;101820.31;4955132;29;20058;-85
2022/03/18 00:15:18;;;;;;;0.88;0.88;;;;;;;-8.16;54.72;101817.72;4957749;29;20055;-85
2022/03/18 00:17:45;;;;;;;1.00;1.00;;;;;;;-8.28;54.82;101799.81;4957005;29;20124;-85
2022/03/18 00:20:13;;;;;;;1.20;1.20;;;;;;;-8.36;55.32;101805.34;4956806;29;20138;-86
2022/03/18 00:22:42;;;;;;;0.82;0.82;;;;;;;-8.45;55.89;101816.19;4956221;29;20043;-86
2022/03/18 00:25:11;;;;;;;1.00;1.00;;;;;;;-8.48;56.08;101813.69;4977053;29;20062;-83
2022/03/18 00:27:39;;;;;;;0.90;0.90;;;;;;;-8.57;56.19;101811.38;4975752;29;20086;-86
2022/03/18 00:30:07;;;;;;;0.90;0.90;;;;;;;-8.58;56.65;101804.41;4960091;29;20045;-85
2022/03/18 00:32:34;;;;;;;1.10;1.10;;;;;;;-8.50;56.74;101812.88;4954942;28;20142;-85
2022/03/18 00:35:27;;;;;;;0.90;0.90;;;;;;;-8.44;56.63;101812.66;4967252;28;20184;-85
2022/03/18 00:37:56;;;;;;;1.10;1.10;;;;;;;-8.33;56.22;101815.72;4955966;29;20205;-85
2022/03/18 00:40:23;;;;;;;1.00;1.00;;;;;;;-8.25;56.04;101811.97;4945566;29;20055;-85
2022/03/18 00:42:50;;;;;;;1.00;1.00;;;;;;;-8.25;55.97;101809.34;4956783;29;20055;-85
2022/03/18 00:45:22;;;;;;;1.00;1.00;;;;;;;-8.13;55.98;101816.75;4956983;29;20047;-85
2022/03/18 00:53:21;;;;;;;1.00;1.00;;;;;;;-8.50;56.56;101805.03;4953550;29;20745;-85
2022/03/18 00:55:49;;;;;;;0.93;0.93;;;;;;;-8.47;56.93;101809.31;4952218;29;20055;-84
2022/03/18 00:58:18;;;;;;;0.80;0.80;;;;;;;-8.47;57.40;101820.63;4953617;29;20061;-84
2022/03/18 01:00:45;;;;;;;1.00;1.00;;;;;;;-8.55;57.58;101812.19;4952435;29;20047;-85
2022/03/18 01:03:15;;;;;;;1.00;1.00;;;;;;;-8.50;57.61;101807.63;4963664;29;20058;-84
2022/03/18 01:05:43;;;;;;;1.10;1.10;;;;;;;-8.56;58.00;101819.19;4954427;29;20455;-84
2022/03/18 01:08:11;;;;;;;1.00;1.00;;;;;;;-8.58;57.93;101826.25;4954142;29;20052;-84
2022/03/18 01:10:38;;;;;;;0.90;0.90;;;;;;;-8.62;58.23;101821.16;4953417;29;20051;-85
2022/03/18 01:13:05;;;;;;;0.80;0.80;;;;;;;-8.70;58.47;101810.94;4954061;29;20106;-85
2022/03/18 01:15:33;;;;;;;1.00;1.00;;;;;;;-8.78;58.71;101816.44;4953846;29;20047;-86
2022/03/18 01:18:00;;;;;;;1.00;1.00;;;;;;;-8.92;58.99;101823.91;4953650;29;20055;-86
2022/03/18 01:20:30;;;;;;;1.10;1.10;;;;;;;-8.91;59.24;101823.00;4953601;28;20055;-85
2022/03/18 01:22:57;;;;;;;1.00;1.00;;;;;;;-8.97;58.98;101820.56;4954194;28;20146;-83
2022/03/18 01:25:25;;;;;;;0.90;0.90;;;;;;;-8.93;59.20;101818.72;4959529;28;20055;-85
2022/03/18 01:27:52;;;;;;;1.02;1.02;;;;;;;-8.87;59.25;101829.84;4966160;29;20059;-84
2022/03/18 01:30:19;;;;;;;0.95;0.95;;;;;;;-8.92;59.86;101825.66;4967053;29;20043;-84
2022/03/18 01:32:46;;;;;;;1.10;1.10;;;;;;;-8.82;59.53;101834.91;4966057;29;20051;-85
2022/03/18 01:35:13;;;;;;;1.00;1.00;;;;;;;-8.85;59.22;101832.41;4966148;29;20055;-85
2022/03/18 01:37:44;;;;;;;1.10;1.10;;;;;;;-8.84;59.09;101841.97;4970116;29;20043;-85
2022/03/18 01:40:11;;;;;;;1.00;1.00;;;;;;;-8.74;58.74;101840.75;4976534;29;20083;-85
2022/03/18 01:42:38;;;;;;;1.00;1.00;;;;;;;-8.74;58.79;101838.97;4965440;29;20146;-86
2022/03/18 01:45:07;;;;;;;1.10;1.10;;;;;;;-8.64;58.31;101851.78;4960099;29;20506;-86
2022/03/18 01:47:42;;;;;;;1.00;1.00;;;;;;;-8.65;58.71;101843.06;4962362;29;20506;-84
2022/03/18 01:50:10;;;;;;;1.00;1.00;;;;;;;-8.65;58.79;101844.84;4962641;29;20107;-85
2022/03/18 01:52:38;;;;;;;1.00;1.00;;;;;;;-8.65;58.65;101843.06;4940656;29;20066;-85
2022/03/18 01:55:06;;;;;;;1.08;1.08;;;;;;;-8.62;58.46;101847.34;4957088;28;20055;-85
2022/03/18 01:57:33;;;;;;;1.00;1.00;;;;;;;-8.59;58.54;101844.63;4956784;29;20055;-85
2022/03/18 02:00:00;;;;;;;1.00;1.00;;;;;;;-8.53;58.28;101853.13;4957799;29;20072;-84
2022/03/18 02:02:37;;;;;;;0.90;0.90;;;;;;;-8.61;58.30;101843.81;4961387;29;20054;-84
2022/03/18 02:05:05;;;;;;;1.17;1.10;;;;;;;-8.51;57.97;101842.59;4960882;29;20055;-86
2022/03/18 02:07:32;;;;;;;1.00;1.00;;;;;;;-8.42;57.56;101844.91;4923752;29;20055;-85
2022/03/18 02:10:00;;;;;;;1.00;1.00;;;;;;;-8.32;56.85;101848.03;4956415;28;20051;-85
2022/03/18 02:12:29;;;;;;;0.80;0.80;;;;;;;-8.24;56.70;101850.38;4956086;29;20110;-82
2022/03/18 02:14:56;;;;;;;1.00;1.00;;;;;;;-8.25;56.83;101848.63;4956866;29;20083;-86
2022/03/18 02:17:24;;;;;;;0.95;0.95;;;;;;;-8.27;57.22;101855.72;4957791;29;20071;-85
2022/03/18 02:19:51;;;;;;;0.93;0.93;;;;;;;-8.23;56.88;101852.06;4961410;29;20058;-84
2022/03/18 02:22:22;;;;;;;0.98;0.98;;;;;;;-8.30;56.72;101854.06;4962915;29;20463;-86
2022/03/18 02:24:52;;;;;;;0.90;0.90;;;;;;;-8.35;56.45;101853.38;4958899;29;20051;-84
2022/03/18 02:27:20;;;;;;;1.10;1.10;;;;;;;-8.17;55.79;101842.22;4955263;29;20787;-87
2022/03/18 02:29:48;;;;;;;0.90;0.90;;;;;;;-8.26;55.96;101846.94;4955079;29;20103;-87
2022/03/18 02:32:18;;;;;;;0.90;0.90;;;;;;;-8.23;55.94;101850.28;4955794;29;20184;-86
2022/03/18 02:34:45;;;;;;;1.10;1.10;;;;;;;-8.29;56.30;101853.16;4955866;28;20051;-85
2022/03/18 02:37:12;;;;;;;0.95;0.95;;;;;;;-8.37;56.50;101858.66;4956183;29;20063;-87
2022/03/18 02:39:39;;;;;;;1.10;1.10;;;;;;;-8.42;56.62;101852.75;4955161;29;20056;-86
2022/03/18 02:42:06;;;;;;;1.00;1.00;;;;;;;-8.44;56.63;101857.19;4954810;29;20404;-86
2022/03/18 02:44:33;;;;;;;1.20;1.17;;;;;;;-8.53;56.78;101853.13;4955707;29;20481;-86
2022/03/18 02:47:00;;;;;;;0.93;0.93;;;;;;;-8.54;56.96;101861.03;4954115;29;20055;-83
2022/03/18 02:49:28;;;;;;;1.00;1.00;;;;;;;-8.65;57.27;101860.53;4954542;29;20550;-84
2022/03/18 02:51:56;;;;;;;1.02;1.02;;;;;;;-8.75;57.85;101858.22;4958148;29;20051;-89
2022/03/18 02:54:23;;;;;;;1.00;1.00;;;;;;;-8.84;57.72;101863.75;4956177;29;20148;-84
2022/03/18 02:56:50;;;;;;;0.88;0.88;;;;;;;-8.91;58.13;101862.28;4954151;29;20188;-85
2022/03/18 02:59:20;;;;;;;1.23;1.20;;;;;;;-9.04;58.68;101869.66;4954374;28;20102;-86
2022/03/18 03:01:47;;;;;;;1.00;1.00;;;;;;;-9.12;58.84;101870.78;4954846;29;20094;-84
2022/03/18 03:04:17;;;;;;;1.10;1.10;;;;;;;-9.23;59.07;101858.06;4954879;29;20058;-90
2022/03/18 03:09:30;;;;;;;0.90;0.90;;;;;;;-9.29;59.18;101869.56;4954497;29;20047;-85
2022/03/18 03:11:57;;;;;;;1.10;1.10;;;;;;;-9.34;59.28;101870.59;4954358;28;20584;-91
2022/03/18 03:14:25;;;;;;;1.05;1.05;;;;;;;-9.40;59.11;101874.25;4953544;29;20114;-89
2022/03/18 03:16:52;;;;;;;1.15;1.15;;;;;;;-9.47;59.24;101870.09;4960815;28;20141;-86
2022/03/18 03:19:20;;;;;;;1.00;1.00;;;;;;;-9.55;59.67;101877.34;4958176;28;20046;-87
2022/03/18 03:21:47;;;;;;;1.15;1.10;;;;;;;-9.65;59.86;101876.75;4973022;28;20521;-88
2022/03/18 03:24:15;;;;;;;1.00;1.00;;;;;;;-9.75;59.90;101864.84;4978000;28;20497;-87
2022/03/18 03:26:42;;;;;;;1.10;1.10;;;;;;;-9.87;60.12;101874.78;4975687;28;20061;-87
2022/03/18 03:29:09;;;;;;;1.10;1.10;;;;;;;-9.80;60.35;101872.81;4973941;28;20498;-93
2022/03/18 03:31:36;;;;;;;1.02;1.02;;;;;;;-9.83;60.51;101873.75;4954963;28;20103;-85
2022/03/18 03:34:04;;;;;;;1.10;1.10;;;;;;;-9.81;60.58;101874.56;4944573;29;20043;-82
2022/03/18 03:36:31;;;;;;;1.30;1.20;;;;;;;-9.84;60.53;101877.28;4953059;28;20050;-86
2022/03/18 03:38:58;;;;;;;1.10;1.10;;;;;;;-9.82;60.70;101890.31;4949969;29;20507;-87
2022/03/18 03:41:25;;;;;;;1.02;1.02;;;;;;;-9.76;60.67;101871.84;4948442;29;20126;-85
2022/03/18 03:43:52;;;;;;;0.90;0.90;;;;;;;-9.73;60.62;101873.50;4948909;29;20418;-85
2022/03/18 03:46:20;;;;;;;1.23;1.13;;;;;;;-9.82;60.82;101866.81;4923610;29;20051;-86
2022/03/18 03:48:49;;;;;;;1.30;1.20;;;;;;;-9.71;61.14;101877.78;4948926;28;20438;-86
2022/03/18 03:51:16;;;;;;;1.23;1.13;;;;;;;-9.70;61.32;101879.50;4952240;29;20121;-87
2022/03/18 03:53:43;;;;;;;1.30;1.20;;;;;;;-9.65;61.62;101874.97;4952483;28;20426;-84
2022/03/18 03:56:10;;;;;;;1.20;1.10;;;;;;;-9.49;61.32;101874.56;4952870;29;20083;-88
2022/03/18 03:58:40;;;;;;;0.93;0.93;;;;;;;-9.55;60.97;101843.34;4943512;29;20048;-89
2022/03/18 04:01:08;;;;;;;1.10;1.10;;;;;;;-9.33;60.82;101878.41;4924518;29;20060;-86
2022/03/18 04:03:38;;;;;;;1.30;1.20;;;;;;;-9.30;60.71;101877.47;4933931;29;20051;-86
2022/03/18 04:06:07;;;;;;;1.10;1.10;;;;;;;-9.41;60.74;101867.31;4922760;29;20051;-85
2022/03/18 04:08:36;;;;;;;1.13;1.13;;;;;;;-9.31;60.63;101876.59;4940664;29;20058;-92
2022/03/18 04:11:04;;;;;;;1.00;1.00;;;;;;;-9.40;60.88;101869.88;4936304;29;20052;-86
2022/03/18 04:13:31;;;;;;;1.30;1.20;;;;;;;-9.34;60.60;101874.09;4944527;29;20055;-88
2022/03/18 04:15:58;;;;;;;1.00;1.00;;;;;;;-9.27;60.43;101878.19;4937464;29;20047;-87
2022/03/18 04:18:25;;;;;;;1.00;1.00;;;;;;;-9.30;60.37;101880.91;4954405;29;20144;-88
2022/03/18 04:20:52;;;;;;;1.10;1.10;;;;;;;-9.31;60.21;101881.84;4956991;29;20058;-89
2022/03/18 04:23:19;;;;;;;1.00;1.00;;;;;;;-9.43;60.20;101866.50;4961708;29;20052;-88
2022/03/18 04:25:46;;;;;;;1.15;1.13;;;;;;;-9.32;60.32;101889.72;4941876;29;20053;-90
2022/03/18 04:28:14;;;;;;;1.13;1.10;;;;;;;-9.30;60.21;101883.53;4957852;29;20051;-90
2022/03/18 04:30:41;;;;;;;1.25;1.17;;;;;;;-9.33;59.95;101867.94;4944661;29;20062;-89
2022/03/18 04:33:08;;;;;;;1.05;1.05;;;;;;;-9.32;59.95;101879.25;4960282;29;20054;-89
2022/03/18 04:35:36;;;;;;;1.08;1.08;;;;;;;-9.33;59.92;101861.88;4956534;29;20051;-88
2022/03/18 04:38:03;;;;;;;1.30;1.20;;;;;;;-9.31;59.62;101866.16;4957101;29;20075;-92
2022/03/18 04:40:32;;;;;;;1.10;1.10;;;;;;;-9.23;59.91;101864.13;4941248;29;20098;-88
2022/03/18 04:42:59;;;;;;;1.13;1.10;;;;;;;-9.08;59.88;101880.28;4940213;29;20048;-89
2022/03/18 04:45:26;;;;;;;1.27;1.20;;;;;;;-8.96;59.67;101878.13;4946935;29;20054;-90
2022/03/18 04:47:56;;;;;;;1.25;1.15;;;;;;;-8.88;59.39;101864.78;4929154;29;20079;-90
2022/03/18 04:50:26;;;;;;;1.00;1.00;;;;;;;-8.68;59.00;101874.59;4945300;29;20047;-89
2022/03/18 04:52:53;;;;;;;1.30;1.20;;;;;;;-8.56;58.63;101875.94;4959708;29;20055;-88
2022/03/18 04:55:20;;;;;;;1.10;1.10;;;;;;;-8.49;58.79;101877.44;4935052;29;20055;-89
2022/03/18 04:57:49;;;;;;;0.98;0.98;;;;;;;-8.42;58.30;101881.56;4917939;29;20113;-89
2022/03/18 05:00:20;;;;;;;1.00;1.00;;;;;;;-8.27;58.30;101882.78;4948356;29;20122;-89
2022/03/18 05:02:48;;;;;;;1.10;1.10;;;;;;;-8.07;58.03;101895.19;4930605;29;20047;-89
2022/03/18 05:05:24;;;;;;;1.27;1.20;;;;;;;-7.92;57.51;101885.91;4945010;29;20441;-88
2022/03/18 05:07:56;;;;;;;1.15;1.10;;;;;;;-7.75;57.29;101886.13;4962037;29;20090;-89
2022/03/18 05:10:26;;;;;;;1.30;1.20;;;;;;;-7.60;56.85;101891.72;4944172;29;20051;-88
2022/03/18 05:12:53;;;;;;;1.10;1.10;;;;;;;-7.42;56.61;101891.91;4926970;29;20051;-88
2022/03/18 05:15:21;;;;;;;1.13;1.08;;;;;;;-7.23;55.71;101894.66;4929040;29;20494;-88
2022/03/18 05:17:50;;;;;;;0.90;0.90;;;;;;;-7.01;55.14;101886.81;4958538;29;20062;-89
2022/03/18 05:20:18;;;;;;;1.00;1.00;;;;;;;-6.86;54.75;101889.72;4911856;29;20380;-88
2022/03/18 05:22:45;;;;;;;1.10;1.10;;;;;;;-6.67;54.21;101898.56;4941159;29;20062;-89
2022/03/18 05:25:13;;;;;;;1.05;1.05;;;;;;;-6.55;53.62;101884.91;4961734;29;20408;-89
2022/03/18 05:27:44;;;;;;;0.90;0.90;;;;;;;-6.39;53.31;101886.91;4963050;29;20047;-90
2022/03/18 05:30:18;;;;;;;0.70;0.70;;;;;;;-6.18;52.75;101890.38;4941535;29;20624;-89
2022/03/18 05:32:48;;;;;;;0.90;0.90;;;;;;;-5.92;52.24;101892.69;4904680;29;20044;-89
2022/03/18 05:35:18;;;;;;;0.80;0.80;;;;;;;-5.72;51.72;101886.56;4915961;29;20163;-89
2022/03/18 05:37:46;;;;;;;1.10;1.10;;;;;;;-5.56;51.15;101878.81;4922801;29;20059;-91
2022/03/18 05:40:17;;;;;;;1.00;1.00;;;;;;;-5.32;50.78;101875.94;4943606;29;20043;-87
2022/03/18 05:42:46;;;;;;;0.90;0.90;;;;;;;-5.12;50.34;101875.84;4939547;29;20088;-90
2022/03/18 05:45:23;;;;;;;0.70;0.70;;;;;;;-4.85;49.40;101876.31;4907621;29;20055;-88
2022/03/18 05:47:51;;;;;;;0.90;0.90;;;;;;;-4.58;48.39;101883.81;4926390;29;20467;-88
2022/03/18 05:50:19;;;;;;;0.70;0.70;;;;;;;-4.40;47.70;101872.31;4889000;29;20523;-90
2022/03/18 05:52:46;;;;;;;0.90;0.90;;;;;;;-4.30;47.30;101872.72;4919689;29;20098;-89
2022/03/18 05:55:17;;;;;;;0.90;0.90;;;;;;;-4.36;46.85;101873.00;4914341;29;20472;-89
2022/03/18 05:57:45;;;;;;;0.60;0.60;;;;;;;-4.38;46.36;101878.38;4895863;29;20045;-88
2022/03/18 06:00:14;;;;;;;0.70;0.70;;;;;;;-4.35;46.46;101880.00;4889107;29;20056;-89
2022/03/18 06:02:41;;;;;;;0.90;0.90;;;;;;;-4.19;46.18;101877.41;4896338;29;20076;-88
2022/03/18 06:05:09;;;;;;;0.75;0.75;;;;;;;-4.02;45.35;101877.41;4837464;29;20148;-86
2022/03/18 06:07:39;;;;;;;0.90;0.90;;;;;;;-3.92;44.79;101854.03;4863747;29;20676;-89
2022/03/18 06:13:05;;;;;;;0.70;0.70;;;;;;;-3.39;44.20;101874.03;4885977;29;20075;-86
2022/03/18 06:15:36;;;;;;;0.70;0.70;;;;;;;-3.09;43.98;101878.53;4880298;29;20120;-90
2022/03/18 06:18:03;;;;;;;0.68;0.68;;;;;;;-2.92;43.69;101874.94;4896945;29;20048;-89
2022/03/18 06:20:32;;;;;;;0.60;0.60;;;;;;;-2.80;43.23;101873.41;4923683;29;20048;-91
2022/03/18 06:22:59;;;;;;;0.60;0.60;;;;;;;-2.62;43.38;101873.19;4923400;29;20059;-89
2022/03/18 06:25:29;;;;;;;0.50;0.50;;;;;;;-2.39;42.75;101878.91;4915085;29;20048;-88
2022/03/18 06:27:56;;;;;;;0.55;0.55;;;;;;;-2.22;42.33;101873.47;4918205;29;20052;-90
2022/03/18 06:30:31;;;;;;;0.52;0.52;;;;;;;-2.11;42.01;101867.53;4927646;29;20138;-86
2022/03/18 06:32:58;;;;;;;0.68;0.68;;;;;;;-2.06;41.38;101864.63;4917854;29;20408;-89
2022/03/18 06:35:27;;;;;;;0.70;0.70;;;;;;;-1.89;41.37;101864.44;4948382;29;20062;-87
2022/03/18 06:37:55;;;;;;;0.55;0.55;;;;;;;-2.04;40.41;101841.56;4954669;29;20110;-84
2022/03/18 06:40:24;;;;;;;0.60;0.60;;;;;;;-1.84;40.16;101866.81;4947171;29;20051;-89
2022/03/18 06:42:52;;;;;;;0.52;0.52;;;;;;;-1.77;39.62;101855.75;4946802;29;20134;-86
2022/03/18 06:45:19;;;;;;;0.75;0.75;;;;;;;-1.76;39.67;101859.25;4934726;29;20470;-87
2022/03/18 06:47:46;;;;;;;0.60;0.60;;;;;;;-1.66;40.15;101848.94;4954195;29;20118;-89
2022/03/18 06:50:13;;;;;;;0.70;0.70;;;;;;;-1.64;38.87;101849.69;4951132;29;20071;-88
2022/03/18 06:52:41;;;;;;;0.60;0.60;;;;;;;-1.68;38.56;101856.13;4935264;29;20054;-88
2022/03/18 06:55:09;;;;;;;0.60;0.60;;;;;;;-1.57;38.90;101843.03;4956139;29;20059;-89
2022/03/18 06:57:36;;;;;;;0.65;0.65;;;;;;;-1.53;38.67;101836.63;4970903;29;20082;-89
2022/03/18 07:00:05;;;;;;;0.60;0.60;;;;;;;-1.36;39.46;101835.56;4922558;29;20055;-88
2022/03/18 07:02:32;;;;;;;0.75;0.75;;;;;;;-1.14;38.74;101846.47;4937113;29;20059;-85
2022/03/18 07:05:05;;;;;;;0.50;0.50;;;;;;;-1.13;38.35;101834.91;4956163;29;20086;-88
2022/03/18 07:07:33;;;;;;;0.60;0.60;;;;;;;-1.07;38.25;101833.66;4968674;28;20047;-87
2022/03/18 07:10:03;;;;;;;0.80;0.80;;;;;;;-0.96;38.21;101830.31;4949334;29;20051;-89
2022/03/18 07:12:40;;;;;;;0.70;0.70;;;;;;;-0.85;38.67;101829.63;4943436;29;20414;-87
2022/03/18 07:15:07;;;;;;;0.70;0.70;;;;;;;-0.70;38.31;101820.63;4936810;29;20062;-91
2022/03/18 07:20:28;;;;;;;0.50;0.50;;;;;;;-0.69;37.99;101839.06;4949162;29;20047;-87
2022/03/18 07:23:13;;;;;;;1.35;0.60;;;;;;;-0.64;37.85;101825.53;4950583;29;20051;-88
2022/03/18 07:26:06;;;;;;;0.77;0.77;;;;;;;-0.60;37.42;101820.88;4949527;29;20051;-90
2022/03/18 07:28:34;;;;;;;0.60;0.60;;;;;;;-0.54;37.44;101823.09;4938250;29;20071;-89
2022/03/18 07:31:02;;;;;;;0.80;0.80;;;;;;;-0.61;36.92;101803.25;4933322;29;20051;-87
2022/03/18 07:33:31;;;;;;;0.80;0.80;;;;;;;-0.38;36.81;101809.63;4944212;29;20058;-92
2022/03/18 07:35:58;;;;;;;0.70;0.70;;;;;;;-0.23;37.15;101792.66;4937594;29;20134;-88
2022/03/18 07:38:25;;;;;;;0.60;0.60;;;;;;;0.07;36.31;101810.91;4934842;29;20074;-88
2022/03/18 07:41:00;;;;;;;0.75;0.75;;;;;;;0.20;35.98;101808.22;4955906;29;20419;-91
2022/03/18 07:43:37;;;;;;;0.90;0.90;;;;;;;0.12;36.09;101814.09;4941661;29;20055;-86
2022/03/18 07:46:06;;;;;;;0.70;0.70;;;;;;;0.21;36.60;101809.94;4942530;29;20039;-86
2022/03/18 07:48:40;;;;;;;0.90;0.90;;;;;;;0.47;36.26;101801.91;4955310;29;20521;-87
2022/03/18 07:51:07;;;;;;;0.68;0.68;;;;;;;0.67;35.82;101803.97;4942590;29;20056;-87
2022/03/18 07:53:35;;;;;;;0.90;0.90;;;;;;;0.74;35.77;101799.06;4956303;29;20047;-87
2022/03/18 07:56:04;;;;;;;0.80;0.80;;;;;;;0.80;35.20;101799.44;4942501;29;20059;-86
2022/03/18 07:58:33;;;;;;;0.80;0.80;;;;;;;0.99;35.47;101808.75;4962616;29;20048;-88
2022/03/18 08:01:01;;;;;;;0.80;0.80;;;;;;;1.51;35.67;101791.50;4932266;29;20047;-87
2022/03/18 08:03:28;;;;;;;0.80;0.80;;;;;;;2.07;34.22;101804.88;4925672;29;20051;-89
2022/03/18 08:05:56;;;;;;;0.77;0.77;;;;;;;2.24;34.40;101802.72;4941738;29;20051;-89
2022/03/18 08:08:28;;;;;;;0.80;0.80;;;;;;;2.30;34.23;101799.53;4960459;29;20109;-86
2022/03/18 08:10:56;;;;;;;0.90;0.90;;;;;;;2.59;33.46;101800.72;4941228;29;20051;-87
2022/03/18 08:13:23;;;;;;;0.90;0.90;;;;;;;2.81;33.79;101796.28;4957341;29;20459;-87
2022/03/18 08:15:51;;;;;;;1.00;1.00;;;;;;;3.26;32.43;101796.13;4947835;29;20043;-91
2022/03/18 08:18:19;;;;;;;1.00;1.00;;;;;;;3.51;32.59;101792.22;4962962;28;20056;-87
2022/03/18 08:20:50;;;;;;;0.90;0.90;;;;;;;3.96;32.43;101799.94;4967619;29;20054;-88
2022/03/18 08:23:19;;;;;;;0.90;0.90;;;;;;;4.33;31.62;101791.38;4957598;29;20047;-87
2022/03/18 08:25:46;;;;;;;0.90;0.90;;;;;;;4.48;31.11;101773.09;4973770;29;20059;-88
2022/03/18 08:28:13;;;;;;;0.90;0.90;;;;;;;3.99;30.02;101788.16;4963790;29;20083;-88
2022/03/18 08:30:41;;;;;;;1.00;1.00;;;;;;;3.71;30.35;101785.19;4945490;29;20147;-88
2022/03/18 08:33:10;;;;;;;0.85;0.85;;;;;;;3.89;31.34;101794.28;4953666;29;20063;-91
2022/03/18 08:35:38;;;;;;;1.00;1.00;;;;;;;4.65;30.74;101801.88;4944379;29;20051;-93
2022/03/18 08:38:09;;;;;;;0.98;0.98;;;;;;;4.94;29.00;101795.75;4946767;29;20062;-89
2022/03/18 08:40:39;;;;;;;0.90;0.90;;;;;;;5.22;29.25;101788.69;4937431;29;20051;-89
2022/03/18 08:43:11;;;;;;;0.98;0.98;;;;;;;5.45;28.45;101788.41;4949979;29;20055;-89
2022/03/18 08:45:43;;;;;;;0.90;0.90;;;;;;;5.48;28.18;101793.47;4942380;29;20111;-90
2022/03/18 08:48:11;;;;;;;0.82;0.82;;;;;;;5.64;28.76;101788.34;4926414;29;20067;-88
2022/03/18 08:50:38;;;;;;;0.90;0.90;;;;;;;5.83;27.74;101787.47;4907950;29;20471;-88
2022/03/18 08:53:09;;;;;;;0.90;0.90;;;;;;;5.46;27.94;101792.75;4937842;29;20431;-91
2022/03/18 08:55:40;;;;;;;0.95;0.95;;;;;;;5.44;27.83;101795.56;4928727;29;20055;-91
2022/03/18 08:58:08;;;;;;;0.90;0.90;;;;;;;5.42;27.72;101784.19;4995966;23;20107;-91
2022/03/18 09:00:36;;;;;;;1.00;1.00;;;;;;;5.82;28.01;101765.19;5000562;28;20112;-87
2022/03/18 09:03:03;;;;;;;1.00;1.00;;;;;;;6.08;27.02;101797.56;5007835;28;20047;-90
2022/03/18 09:05:31;;;;;;;0.90;0.90;;;;;;;6.41;27.57;101765.81;5000353;28;20054;-89
2022/03/18 09:07:58;;;;;;;0.90;0.90;;;;;;;7.29;26.90;101774.06;4987409;28;20050;-91
2022/03/18 09:10:28;;;;;;;0.90;0.90;;;;;;;7.80;26.74;101776.94;5014765;28;20049;-89
2022/03/18 09:12:58;;;;;;;0.90;0.90;;;;;;;7.86;25.77;101780.84;4996344;28;20097;-89
2022/03/18 09:15:26;;;;;;;0.90;0.90;;;;;;;7.99;25.79;101783.94;4992566;28;20046;-88
2022/03/18 09:17:54;;;;;;;0.90;0.90;;;;;;;8.01;24.97;101760.41;4980732;28;20057;-91
2022/03/18 09:20:21;;;;;;;0.93;0.93;;;;;;;7.76;24.89;101772.88;4999060;28;20150;-89
2022/03/18 09:22:48;;;;;;;1.00;1.00;;;;;;;7.28;25.48;101783.09;5005946;28;20057;-90
2022/03/18 09:25:16;;;;;;;0.93;0.93;;;;;;;7.78;26.09;101776.25;4960487;28;20050;-89
2022/03/18 09:27:43;;;;;;;1.00;1.00;;;;;;;8.35;25.11;101770.28;4973898;28;20050;-89
2022/03/18 09:30:11;;;;;;;0.82;0.82;;;;;;;8.39;24.26;101759.09;4976028;28;20508;-89
2022/03/18 09:32:42;;;;;;;0.90;0.90;;;;;;;8.07;24.25;101757.06;4995548;28;20060;-84
2022/03/18 09:35:15;;;;;;;1.00;1.00;;;;;;;7.98;24.87;101760.75;4992003;28;20073;-89
2022/03/18 09:37:42;;;;;;;0.90;0.90;;;;;;;7.94;24.26;101759.34;4993395;28;20058;-90
2022/03/18 09:40:11;;;;;;;1.00;1.00;;;;;;;7.51;24.54;101763.78;4973449;28;20046;-89
2022/03/18 09:43:03;;;;;;;0.90;0.90;;;;;;;7.91;24.10;101744.38;4990536;28;20047;-88
2022/03/18 09:45:33;;;;;;;1.00;1.00;;;;;;;7.96;24.30;101752.81;5003164;28;20065;-88
2022/03/18 09:48:04;;;;;;;1.00;1.00;;;;;;;8.51;24.21;101751.56;4922102;29;20059;-87
2022/03/18 09:50:31;;;;;;;0.90;0.90;;;;;;;8.67;23.93;101746.22;4923822;29;20510;-91
2022/03/18 09:52:59;;;;;;;1.00;1.00;;;;;;;9.30;23.23;101741.22;4972998;28;20043;-91
2022/03/18 09:55:26;;;;;;;1.00;1.00;;;;;;;9.68;22.71;101734.25;4968334;28;20054;-89
2022/03/18 09:57:53;;;;;;;0.90;0.90;;;;;;;9.72;22.51;101737.41;4964555;28;20087;-88
2022/03/18 10:00:27;;;;;;;0.90;0.90;;;;;;;9.62;22.75;101724.16;4965704;28;20058;-88
2022/03/18 10:03:08;;;;;;;0.90;0.90;;;;;;;9.36;22.27;101732.44;4929799;29;20074;-90
2022/03/18 10:05:57;;;;;;;1.00;1.00;;;;;;;9.45;22.72;101736.81;4962115;28;20522;-87
2022/03/18 10:08:25;;;;;;;1.00;1.00;;;;;;;9.93;22.08;101726.94;4951149;28;20051;-87
2022/03/18 10:10:52;;;;;;;0.90;0.90;;;;;;;9.47;22.10;101725.84;4969214;28;20059;-88
2022/03/18 10:13:20;;;;;;;1.00;1.00;;;;;;;10.17;22.79;101722.44;4958722;28;20541;-88
2022/03/18 10:15:47;;;;;;;1.00;1.00;;;;;;;11.36;21.87;101723.00;4969211;28;20051;-87
2022/03/18 10:18:18;;;;;;;0.95;0.95;;;;;;;11.71;20.74;101716.88;4966395;28;20047;-85
2022/03/18 10:20:50;;;;;;;0.90;0.90;;;;;;;11.30;20.79;101712.94;4945781;28;20075;-86
2022/03/18 10:23:22;;;;;;;1.00;1.00;;;;;;;11.23;20.77;101719.06;4963801;28;20051;-89
2022/03/18 10:25:57;;;;;;;0.90;0.90;;;;;;;11.63;20.67;101718.84;4990986;28;20053;-90
2022/03/18 10:28:40;;;;;;;0.90;0.90;;;;;;;12.03;20.07;101714.88;5000807;28;20054;-88
2022/03/18 10:31:19;;;;;;;0.90;0.90;;;;;;;12.04;19.76;101702.19;4996462;28;20056;-85
2022/03/18 10:37:07;;;;;;;0.90;0.90;;;;;;;12.90;19.68;101716.69;5010198;28;20124;-85
2022/03/18 10:39:39;;;;;;;0.90;0.90;;;;;;;12.52;19.22;101691.72;5005679;28;20057;-86
2022/03/18 10:42:14;;;;;;;0.90;0.90;;;;;;;11.89;19.71;101696.78;5005145;28;20131;-84
2022/03/18 10:44:51;;;;;;;0.90;0.90;;;;;;;11.15;19.92;101692.09;5000878;28;20056;-86
2022/03/18 10:47:31;;;;;;;0.90;0.90;;;;;;;11.09;19.87;101690.16;5010582;28;20046;-88
2022/03/18 10:50:16;;;;;;;1.00;1.00;;;;;;;11.75;20.11;101684.03;5010640;28;20436;-85
2022/03/18 10:52:52;;;;;;;;;;;;;;;12.63;20.19;101693.06;5016938;28;20394;-87
2022/03/18 10:55:22;;;;;;;0.98;0.98;;;;;;;12.22;19.10;101682.81;4980262;28;19926;-89
2022/03/18 10:58:01;;;;;;;0.90;0.90;;;;;;;12.10;20.25;101687.88;5021357;28;20120;-88
2022/03/18 11:00:31;;;;;;;0.90;0.90;;;;;;;12.90;19.53;101680.63;4996096;28;20058;-84
2022/03/18 11:02:59;;;;;;;1.00;1.00;;;;;;;12.68;19.08;101674.34;4998199;28;20107;-89
2022/03/18 11:05:32;;;;;;;1.00;1.00;;;;;;;12.29;19.25;101678.31;5017096;28;20052;-87
2022/03/18 11:08:01;;;;;;;0.80;0.80;;;;;;;11.04;20.97;101676.34;5011861;28;20046;-85
2022/03/18 11:13:15;;;;;;;1.00;1.00;;;;;;;13.01;19.44;101680.94;4999772;28;20069;-90
2022/03/18 11:15:44;;;;;;;0.90;0.90;;;;;;;13.79;19.45;101672.72;4998322;28;20115;-90
2022/03/18 11:18:13;;;;;;;0.90;0.90;;;;;;;14.46;18.24;101660.25;5014236;28;20496;-92
2022/03/18 11:20:45;;;;;;;1.00;1.00;;;;;;;14.17;18.10;101674.97;5005366;28;20497;-86
2022/03/18 11:23:16;;;;;;;0.90;0.90;;;;;;;13.75;18.28;101670.59;5010692;28;20468;-87
2022/03/18 11:25:47;;;;;;;0.90;0.90;;;;;;;13.82;18.27;101661.50;5013675;28;20053;-88
2022/03/18 11:28:16;;;;;;;0.90;0.90;;;;;;;13.71;18.22;101653.91;5009131;28;20570;-89
2022/03/18 11:30:44;;;;;;;0.90;0.90;;;;;;;13.25;18.53;101662.56;5001462;28;20042;-88
2022/03/18 11:33:11;;;;;;;0.90;0.90;;;;;;;13.92;18.18;101652.94;4988691;28;20042;-88
2022/03/18 11:35:50;;;;;;;0.90;0.90;;;;;;;14.19;17.71;101655.78;4995242;28;20057;-88
2022/03/18 11:38:25;;;;;;;0.90;0.90;;;;;;;14.08;18.04;101644.47;4981097;28;20497;-86
2022/03/18 11:41:01;;;;;;;0.90;0.90;;;;;;;14.54;18.08;101652.97;4985780;28;20054;-88
2022/03/18 11:43:51;;;;;;;0.90;0.90;;;;;;;15.10;17.64;101647.16;4968275;28;20041;-87
2022/03/18 11:46:21;;;;;;;0.85;0.85;;;;;;;15.20;17.31;101641.28;4994297;28;20054;-88
2022/03/18 11:49:17;;;;;;;0.90;0.90;;;;;;;15.14;17.36;101646.53;5002457;28;20050;-86
2022/03/18 11:52:00;;;;;;;0.90;0.90;;;;;;;14.68;17.90;101636.47;5003386;28;20509;-89
2022/03/18 11:54:27;;;;;;;0.80;0.80;;;;;;;15.05;17.32;101631.47;4996597;28;20100;-89
2022/03/18 11:56:55;;;;;;;0.70;0.70;;;;;;;14.90;16.90;101633.56;5000887;28;20046;-88